Atomic City, Idaho
Current Conditions -  °F | °C
As of 10:53 AM on Monday 26 Jan 2015 (Local Time) from KIDA Reporting Station
Clear Clear  
Wind Chill: 24°   Ceiling: Unl
Heat Index: 30°   Visibility: 10mi
Dew Point: 28°   Wind: 6mph
Humidity: 92%   Direction: 340°NNW
Pressure: 30.4"   Gusts: NA
Location:  43.44°N, 112.81°W
Report Text: KIDA 261753Z 34005KT 10SM CLR M01/M02 A3040 RMK AO2 SLP325 HZ ALQDS I6000 T10111022 11011 21067 58007
Loading
Personal Weather Stations






























Interactive Weather Map New forecast layout! Learn more

10-Day Weather Forecast

Advertisements
Track Severe Weather on mobile